sensor_id;sensor_type;location;lat;lon;timestamp;P1;durP1;ratioP1;P2;durP2;ratioP2
2712;SDS011;1366;47.988;7.856;2022-08-23T04:03:01;6.50;;;6.00;;
2712;SDS011;1366;47.988;7.856;2022-08-23T04:05:27;5.70;;;5.20;;
2712;SDS011;1366;47.988;7.856;2022-08-23T04:07:53;6.90;;;6.30;;
2712;SDS011;1366;47.988;7.856;2022-08-23T04:10:19;6.30;;;5.80;;
2712;SDS011;1366;47.988;7.856;2022-08-23T04:12:46;6.30;;;5.80;;
2712;SDS011;1366;47.988;7.856;2022-08-23T04:15:12;6.07;;;5.57;;
2712;SDS011;1366;47.988;7.856;2022-08-23T04:17:38;7.47;;;6.73;;
2712;SDS011;1366;47.988;7.856;2022-08-23T04:20:04;6.80;;;6.00;;
2712;SDS011;1366;47.988;7.856;2022-08-23T04:22:31;6.90;;;6.27;;
2712;SDS011;1366;47.988;7.856;2022-08-23T04:24:58;6.87;;;6.27;;
2712;SDS011;1366;47.988;7.856;2022-08-23T04:27:24;6.70;;;6.20;;
2712;SDS011;1366;47.988;7.856;2022-08-23T04:29:50;6.57;;;6.03;;
2712;SDS011;1366;47.988;7.856;2022-08-23T04:32:16;5.90;;;5.40;;
2712;SDS011;1366;47.988;7.856;2022-08-23T04:34:42;6.03;;;5.30;;
2712;SDS011;1366;47.988;7.856;2022-08-23T04:37:09;6.90;;;6.10;;
2712;SDS011;1366;47.988;7.856;2022-08-23T04:39:36;6.27;;;5.77;;
2712;SDS011;1366;47.988;7.856;2022-08-23T04:42:21;6.03;;;5.60;;
2712;SDS011;1366;47.988;7.856;2022-08-23T04:44:48;6.13;;;5.73;;
2712;SDS011;1366;47.988;7.856;2022-08-23T04:47:14;6.20;;;5.70;;
2712;SDS011;1366;47.988;7.856;2022-08-23T04:49:40;6.73;;;6.13;;
2712;SDS011;1366;47.988;7.856;2022-08-23T04:52:06;7.27;;;6.70;;
2712;SDS011;1366;47.988;7.856;2022-08-23T04:54:32;6.33;;;5.60;;
2712;SDS011;1366;47.988;7.856;2022-08-23T04:56:58;6.00;;;5.50;;
2712;SDS011;1366;47.988;7.856;2022-08-23T04:59:24;6.20;;;5.80;;
2712;SDS011;1366;47.988;7.856;2022-08-23T05:01:51;6.13;;;5.63;;
2712;SDS011;1366;47.988;7.856;2022-08-23T05:04:17;6.20;;;5.70;;
2712;SDS011;1366;47.988;7.856;2022-08-23T05:06:43;5.60;;;5.20;;
2712;SDS011;1366;47.988;7.856;2022-08-23T05:09:09;7.03;;;6.47;;
2712;SDS011;1366;47.988;7.856;2022-08-23T05:11:36;7.40;;;6.87;;
2712;SDS011;1366;47.988;7.856;2022-08-23T05:14:03;8.83;;;6.43;;
2712;SDS011;1366;47.988;7.856;2022-08-23T05:16:29;6.70;;;6.10;;
2712;SDS011;1366;47.988;7.856;2022-08-23T05:18:55;6.70;;;6.10;;
2712;SDS011;1366;47.988;7.856;2022-08-23T05:21:22;6.13;;;5.63;;
2712;SDS011;1366;47.988;7.856;2022-08-23T05:23:48;6.93;;;6.23;;
2712;SDS011;1366;47.988;7.856;2022-08-23T05:26:14;6.57;;;5.97;;
2712;SDS011;1366;47.988;7.856;2022-08-23T05:28:41;7.07;;;6.47;;
2712;SDS011;1366;47.988;7.856;2022-08-23T05:33:41;6.80;;;6.20;;
2712;SDS011;1366;47.988;7.856;2022-08-23T05:36:08;6.47;;;5.97;;
2712;SDS011;1366;47.988;7.856;2022-08-23T05:38:34;6.90;;;6.30;;
2712;SDS011;1366;47.988;7.856;2022-08-23T05:41:01;6.87;;;6.27;;
2712;SDS011;1366;47.988;7.856;2022-08-23T05:43:28;6.77;;;6.17;;
2712;SDS011;1366;47.988;7.856;2022-08-23T05:46:05;7.13;;;6.10;;
2712;SDS011;1366;47.988;7.856;2022-08-23T05:48:32;6.73;;;6.03;;
2712;SDS011;1366;47.988;7.856;2022-08-23T05:51:15;5.83;;;5.43;;
2712;SDS011;1366;47.988;7.856;2022-08-23T05:53:41;6.30;;;5.90;;
2712;SDS011;1366;47.988;7.856;2022-08-23T05:58:37;5.97;;;5.50;;
2712;SDS011;1366;47.988;7.856;2022-08-23T06:01:03;6.40;;;5.80;;
2712;SDS011;1366;47.988;7.856;2022-08-23T06:03:29;6.33;;;5.93;;
2712;SDS011;1366;47.988;7.856;2022-08-23T06:05:56;6.40;;;5.57;;
2712;SDS011;1366;47.988;7.856;2022-08-23T06:08:22;6.37;;;5.90;;
2712;SDS011;1366;47.988;7.856;2022-08-23T06:10:50;6.37;;;5.87;;
2712;SDS011;1366;47.988;7.856;2022-08-23T06:13:23;5.70;;;5.33;;
2712;SDS011;1366;47.988;7.856;2022-08-23T06:15:49;6.20;;;5.80;;
2712;SDS011;1366;47.988;7.856;2022-08-23T06:18:15;5.73;;;5.33;;
2712;SDS011;1366;47.988;7.856;2022-08-23T06:20:41;6.50;;;6.00;;
2712;SDS011;1366;47.988;7.856;2022-08-23T06:23:07;6.37;;;5.50;;
2712;SDS011;1366;47.988;7.856;2022-08-23T06:25:38;6.60;;;6.00;;
2712;SDS011;1366;47.988;7.856;2022-08-23T06:28:04;6.43;;;5.93;;
2712;SDS011;1366;47.988;7.856;2022-08-23T06:30:30;6.43;;;5.97;;
2712;SDS011;1366;47.988;7.856;2022-08-23T06:32:56;7.20;;;6.53;;
2712;SDS011;1366;47.988;7.856;2022-08-23T06:35:23;7.07;;;6.27;;
2712;SDS011;1366;47.988;7.856;2022-08-23T06:37:49;6.07;;;5.57;;
2712;SDS011;1366;47.988;7.856;2022-08-23T06:40:15;7.20;;;5.63;;
2712;SDS011;1366;47.988;7.856;2022-08-23T06:42:41;6.30;;;5.80;;
2712;SDS011;1366;47.988;7.856;2022-08-23T06:45:08;7.23;;;6.40;;
2712;SDS011;1366;47.988;7.856;2022-08-23T06:47:35;6.83;;;6.27;;
2712;SDS011;1366;47.988;7.856;2022-08-23T06:50:01;6.10;;;5.60;;
2712;SDS011;1366;47.988;7.856;2022-08-23T06:52:27;6.07;;;5.67;;
2712;SDS011;1366;47.988;7.856;2022-08-23T06:54:53;6.93;;;6.23;;
2712;SDS011;1366;47.988;7.856;2022-08-23T06:57:19;7.13;;;6.10;;
2712;SDS011;1366;47.988;7.856;2022-08-23T06:59:47;6.90;;;6.23;;
2712;SDS011;1366;47.988;7.856;2022-08-23T07:02:13;6.77;;;6.17;;
2712;SDS011;1366;47.988;7.856;2022-08-23T07:04:39;6.40;;;5.90;;
2712;SDS011;1366;47.988;7.856;2022-08-23T07:07:06;6.10;;;5.70;;
2712;SDS011;1366;47.988;7.856;2022-08-23T07:09:33;6.13;;;5.63;;
2712;SDS011;1366;47.988;7.856;2022-08-23T07:11:59;6.50;;;6.00;;
2712;SDS011;1366;47.988;7.856;2022-08-23T07:14:26;6.40;;;5.90;;
2712;SDS011;1366;47.988;7.856;2022-08-23T07:16:54;6.17;;;5.70;;
2712;SDS011;1366;47.988;7.856;2022-08-23T07:19:21;6.10;;;5.70;;
2712;SDS011;1366;47.988;7.856;2022-08-23T07:21:48;5.95;;;5.45;;
2712;SDS011;1366;47.988;7.856;2022-08-23T07:24:15;6.00;;;5.60;;
2712;SDS011;1366;47.988;7.856;2022-08-23T07:26:42;6.27;;;5.87;;
2712;SDS011;1366;47.988;7.856;2022-08-23T07:29:09;6.57;;;6.07;;
2712;SDS011;1366;47.988;7.856;2022-08-23T07:31:38;5.97;;;5.57;;
2712;SDS011;1366;47.988;7.856;2022-08-23T07:34:04;5.87;;;5.47;;
2712;SDS011;1366;47.988;7.856;2022-08-23T07:36:31;5.93;;;5.53;;
2712;SDS011;1366;47.988;7.856;2022-08-23T07:38:58;5.97;;;5.57;;
2712;SDS011;1366;47.988;7.856;2022-08-23T07:41:26;5.87;;;5.37;;
2712;SDS011;1366;47.988;7.856;2022-08-23T07:43:54;5.60;;;5.20;;
2712;SDS011;1366;47.988;7.856;2022-08-23T07:46:22;5.97;;;5.47;;
2712;SDS011;1366;47.988;7.856;2022-08-23T07:48:48;6.10;;;5.60;;
2712;SDS011;1366;47.988;7.856;2022-08-23T07:51:16;5.80;;;5.30;;
2712;SDS011;1366;47.988;7.856;2022-08-23T07:53:43;6.30;;;5.80;;
2712;SDS011;1366;47.988;7.856;2022-08-23T07:56:10;5.90;;;5.50;;
2712;SDS011;1366;47.988;7.856;2022-08-23T07:58:37;6.50;;;6.00;;
2712;SDS011;1366;47.988;7.856;2022-08-23T08:03:36;6.70;;;6.20;;
2712;SDS011;1366;47.988;7.856;2022-08-23T08:06:06;6.30;;;5.80;;
2712;SDS011;1366;47.988;7.856;2022-08-23T08:08:33;9.30;;;6.77;;
2712;SDS011;1366;47.988;7.856;2022-08-23T08:10:59;7.00;;;6.40;;
2712;SDS011;1366;47.988;7.856;2022-08-23T08:13:25;7.70;;;6.50;;
2712;SDS011;1366;47.988;7.856;2022-08-23T08:15:51;6.70;;;5.70;;
2712;SDS011;1366;47.988;7.856;2022-08-23T08:18:17;7.13;;;6.53;;
2712;SDS011;1366;47.988;7.856;2022-08-23T08:20:44;6.87;;;6.27;;
2712;SDS011;1366;47.988;7.856;2022-08-23T08:23:10;6.93;;;6.23;;
2712;SDS011;1366;47.988;7.856;2022-08-23T08:25:36;7.30;;;6.60;;
2712;SDS011;1366;47.988;7.856;2022-08-23T08:28:02;8.43;;;6.50;;
2712;SDS011;1366;47.988;7.856;2022-08-23T08:30:28;7.30;;;6.70;;
2712;SDS011;1366;47.988;7.856;2022-08-23T08:32:54;7.00;;;6.30;;
2712;SDS011;1366;47.988;7.856;2022-08-23T08:35:20;6.63;;;6.03;;
2712;SDS011;1366;47.988;7.856;2022-08-23T08:37:46;7.60;;;7.00;;
2712;SDS011;1366;47.988;7.856;2022-08-23T08:40:12;6.07;;;5.57;;
2712;SDS011;1366;47.988;7.856;2022-08-23T08:42:52;7.30;;;6.30;;
2712;SDS011;1366;47.988;7.856;2022-08-23T08:45:24;6.70;;;6.10;;
2712;SDS011;1366;47.988;7.856;2022-08-23T08:47:59;7.37;;;5.47;;
2712;SDS011;1366;47.988;7.856;2022-08-23T08:50:33;7.40;;;6.80;;
2712;SDS011;1366;47.988;7.856;2022-08-23T08:53:12;6.90;;;6.40;;
2712;SDS011;1366;47.988;7.856;2022-08-23T08:55:40;5.57;;;5.17;;
2712;SDS011;1366;47.988;7.856;2022-08-23T08:58:11;6.70;;;5.90;;
2712;SDS011;1366;47.988;7.856;2022-08-23T09:00:39;6.67;;;5.97;;
2712;SDS011;1366;47.988;7.856;2022-08-23T09:03:09;6.97;;;6.40;;
2712;SDS011;1366;47.988;7.856;2022-08-23T09:05:38;7.10;;;5.60;;
2712;SDS011;1366;47.988;7.856;2022-08-23T09:08:29;5.55;;;5.15;;
2712;SDS011;1366;47.988;7.856;2022-08-23T09:19:04;5.97;;;5.47;;
2712;SDS011;1366;47.988;7.856;2022-08-23T09:21:32;6.50;;;5.90;;
2712;SDS011;1366;47.988;7.856;2022-08-23T09:24:03;6.10;;;5.50;;
2712;SDS011;1366;47.988;7.856;2022-08-23T09:26:29;5.70;;;5.30;;
2712;SDS011;1366;47.988;7.856;2022-08-23T09:29:10;6.67;;;6.10;;
2712;SDS011;1366;47.988;7.856;2022-08-23T09:31:41;6.27;;;5.33;;
2712;SDS011;1366;47.988;7.856;2022-08-23T09:34:08;6.73;;;6.23;;
2712;SDS011;1366;47.988;7.856;2022-08-23T09:36:35;5.80;;;5.33;;
2712;SDS011;1366;47.988;7.856;2022-08-23T09:39:04;6.40;;;5.80;;
2712;SDS011;1366;47.988;7.856;2022-08-23T09:41:31;5.77;;;5.23;;
2712;SDS011;1366;47.988;7.856;2022-08-23T09:44:00;6.33;;;5.70;;
2712;SDS011;1366;47.988;7.856;2022-08-23T09:46:28;6.50;;;5.63;;
2712;SDS011;1366;47.988;7.856;2022-08-23T09:48:55;5.80;;;5.30;;
2712;SDS011;1366;47.988;7.856;2022-08-23T09:54:11;5.60;;;5.20;;
2712;SDS011;1366;47.988;7.856;2022-08-23T09:56:36;6.40;;;5.80;;
2712;SDS011;1366;47.988;7.856;2022-08-23T09:59:18;6.80;;;6.10;;
2712;SDS011;1366;47.988;7.856;2022-08-23T10:01:45;5.30;;;4.90;;
2712;SDS011;1366;47.988;7.856;2022-08-23T10:04:13;5.97;;;5.47;;
2712;SDS011;1366;47.988;7.856;2022-08-23T10:06:41;5.80;;;5.30;;
2712;SDS011;1366;47.988;7.856;2022-08-23T10:09:14;6.03;;;5.53;;
2712;SDS011;1366;47.988;7.856;2022-08-23T10:11:46;6.70;;;6.10;;
2712;SDS011;1366;47.988;7.856;2022-08-23T10:14:12;6.33;;;5.73;;
2712;SDS011;1366;47.988;7.856;2022-08-23T10:16:52;5.30;;;4.90;;
2712;SDS011;1366;47.988;7.856;2022-08-23T10:21:55;5.73;;;5.13;;
2712;SDS011;1366;47.988;7.856;2022-08-23T10:24:25;6.13;;;5.63;;
2712;SDS011;1366;47.988;7.856;2022-08-23T10:27:01;5.70;;;5.30;;
2712;SDS011;1366;47.988;7.856;2022-08-23T10:29:48;6.07;;;5.57;;
2712;SDS011;1366;47.988;7.856;2022-08-23T10:35:00;7.93;;;5.00;;
2712;SDS011;1366;47.988;7.856;2022-08-23T10:47:37;5.40;;;5.00;;
2712;SDS011;1366;47.988;7.856;2022-08-23T10:50:07;6.13;;;5.70;;
2712;SDS011;1366;47.988;7.856;2022-08-23T10:52:50;6.70;;;5.30;;
2712;SDS011;1366;47.988;7.856;2022-08-23T10:55:21;5.77;;;5.37;;
2712;SDS011;1366;47.988;7.856;2022-08-23T10:58:05;6.57;;;5.60;;
2712;SDS011;1366;47.988;7.856;2022-08-23T11:00:31;6.80;;;6.17;;
2712;SDS011;1366;47.988;7.856;2022-08-23T11:03:03;5.67;;;5.20;;
2712;SDS011;1366;47.988;7.856;2022-08-23T11:05:33;5.90;;;5.40;;
2712;SDS011;1366;47.988;7.856;2022-08-23T11:08:10;5.60;;;5.20;;
2712;SDS011;1366;47.988;7.856;2022-08-23T11:13:17;5.90;;;5.40;;
2712;SDS011;1366;47.988;7.856;2022-08-23T11:20:58;5.83;;;5.43;;
2712;SDS011;1366;47.988;7.856;2022-08-23T11:23:46;7.83;;;5.73;;
2712;SDS011;1366;47.988;7.856;2022-08-23T11:28:51;6.30;;;5.70;;
2712;SDS011;1366;47.988;7.856;2022-08-23T11:31:29;5.70;;;5.20;;
2712;SDS011;1366;47.988;7.856;2022-08-23T11:34:07;5.80;;;5.30;;
2712;SDS011;1366;47.988;7.856;2022-08-23T11:36:35;6.73;;;6.23;;
2712;SDS011;1366;47.988;7.856;2022-08-23T11:39:09;5.40;;;4.93;;
2712;SDS011;1366;47.988;7.856;2022-08-23T11:41:58;6.97;;;6.37;;
2712;SDS011;1366;47.988;7.856;2022-08-23T11:44:23;6.70;;;5.00;;
2712;SDS011;1366;47.988;7.856;2022-08-23T11:59:36;6.20;;;5.70;;
2712;SDS011;1366;47.988;7.856;2022-08-23T12:04:49;5.50;;;5.00;;
2712;SDS011;1366;47.988;7.856;2022-08-23T12:10:02;6.10;;;5.50;;
2712;SDS011;1366;47.988;7.856;2022-08-23T12:12:30;5.47;;;4.97;;
2712;SDS011;1366;47.988;7.856;2022-08-23T12:14:58;5.67;;;5.27;;
2712;SDS011;1366;47.988;7.856;2022-08-23T12:19:56;5.40;;;5.07;;
2712;SDS011;1366;47.988;7.856;2022-08-23T12:22:24;7.10;;;5.47;;
2712;SDS011;1366;47.988;7.856;2022-08-23T12:25:01;5.40;;;4.90;;
2712;SDS011;1366;47.988;7.856;2022-08-23T12:40:49;5.20;;;4.90;;
2712;SDS011;1366;47.988;7.856;2022-08-23T12:43:16;5.90;;;5.40;;
2712;SDS011;1366;47.988;7.856;2022-08-23T12:45:44;6.10;;;5.13;;
2712;SDS011;1366;47.988;7.856;2022-08-23T12:48:13;5.00;;;4.70;;
2712;SDS011;1366;47.988;7.856;2022-08-23T12:50:41;4.90;;;4.53;;
2712;SDS011;1366;47.988;7.856;2022-08-23T12:53:14;6.60;;;5.77;;
2712;SDS011;1366;47.988;7.856;2022-08-23T12:55:42;5.77;;;5.27;;
2712;SDS011;1366;47.988;7.856;2022-08-23T12:58:09;5.00;;;4.70;;
2712;SDS011;1366;47.988;7.856;2022-08-23T13:00:38;6.10;;;5.70;;
2712;SDS011;1366;47.988;7.856;2022-08-23T13:03:15;5.40;;;5.10;;
2712;SDS011;1366;47.988;7.856;2022-08-23T13:08:22;5.45;;;4.95;;
2712;SDS011;1366;47.988;7.856;2022-08-23T13:10:50;6.30;;;5.77;;
2712;SDS011;1366;47.988;7.856;2022-08-23T13:13:18;7.57;;;5.87;;
2712;SDS011;1366;47.988;7.856;2022-08-23T13:15:49;6.03;;;5.53;;
2712;SDS011;1366;47.988;7.856;2022-08-23T13:18:22;5.70;;;5.30;;
2712;SDS011;1366;47.988;7.856;2022-08-23T13:20:49;5.47;;;4.97;;
2712;SDS011;1366;47.988;7.856;2022-08-23T13:23:16;6.13;;;5.70;;
2712;SDS011;1366;47.988;7.856;2022-08-23T13:25:52;5.80;;;5.40;;
2712;SDS011;1366;47.988;7.856;2022-08-23T13:28:23;5.63;;;5.23;;
2712;SDS011;1366;47.988;7.856;2022-08-23T13:31:01;5.83;;;5.33;;
2712;SDS011;1366;47.988;7.856;2022-08-23T13:33:27;5.97;;;5.33;;
2712;SDS011;1366;47.988;7.856;2022-08-23T13:38:51;5.30;;;5.00;;
2712;SDS011;1366;47.988;7.856;2022-08-23T13:41:31;6.20;;;5.60;;
2712;SDS011;1366;47.988;7.856;2022-08-23T13:43:57;5.80;;;5.40;;
2712;SDS011;1366;47.988;7.856;2022-08-23T13:46:24;5.30;;;5.00;;
2712;SDS011;1366;47.988;7.856;2022-08-23T13:51:18;5.70;;;5.30;;
2712;SDS011;1366;47.988;7.856;2022-08-23T13:53:45;6.70;;;5.30;;
2712;SDS011;1366;47.988;7.856;2022-08-23T13:56:11;5.47;;;5.07;;
2712;SDS011;1366;47.988;7.856;2022-08-23T13:58:39;5.30;;;4.90;;
2712;SDS011;1366;47.988;7.856;2022-08-23T14:01:18;5.50;;;5.10;;
2712;SDS011;1366;47.988;7.856;2022-08-23T14:03:44;5.40;;;5.00;;
2712;SDS011;1366;47.988;7.856;2022-08-23T14:06:10;5.80;;;5.27;;
2712;SDS011;1366;47.988;7.856;2022-08-23T14:08:37;5.60;;;5.10;;
2712;SDS011;1366;47.988;7.856;2022-08-23T14:11:03;5.57;;;5.07;;
2712;SDS011;1366;47.988;7.856;2022-08-23T14:13:29;5.67;;;5.13;;
2712;SDS011;1366;47.988;7.856;2022-08-23T14:16:01;5.23;;;4.93;;
2712;SDS011;1366;47.988;7.856;2022-08-23T14:18:27;5.43;;;5.03;;
2712;SDS011;1366;47.988;7.856;2022-08-23T14:20:53;5.90;;;5.50;;
2712;SDS011;1366;47.988;7.856;2022-08-23T14:23:20;5.67;;;5.17;;
2712;SDS011;1366;47.988;7.856;2022-08-23T14:25:47;6.03;;;5.53;;
2712;SDS011;1366;47.988;7.856;2022-08-23T14:28:13;6.20;;;5.57;;
2712;SDS011;1366;47.988;7.856;2022-08-23T14:30:40;5.60;;;5.20;;
2712;SDS011;1366;47.988;7.856;2022-08-23T14:33:06;5.67;;;5.07;;
2712;SDS011;1366;47.988;7.856;2022-08-23T14:35:32;5.27;;;4.93;;
2712;SDS011;1366;47.988;7.856;2022-08-23T14:37:58;5.37;;;4.87;;
2712;SDS011;1366;47.988;7.856;2022-08-23T14:40:24;6.10;;;5.30;;
2712;SDS011;1366;47.988;7.856;2022-08-23T14:42:50;5.30;;;4.90;;
2712;SDS011;1366;47.988;7.856;2022-08-23T14:45:16;5.73;;;5.33;;
2712;SDS011;1366;47.988;7.856;2022-08-23T14:47:42;5.30;;;4.90;;
2712;SDS011;1366;47.988;7.856;2022-08-23T14:50:09;5.73;;;5.20;;
2712;SDS011;1366;47.988;7.856;2022-08-23T14:52:36;5.90;;;5.37;;
2712;SDS011;1366;47.988;7.856;2022-08-23T14:55:03;6.00;;;5.67;;
2712;SDS011;1366;47.988;7.856;2022-08-23T14:57:29;5.73;;;4.80;;
2712;SDS011;1366;47.988;7.856;2022-08-23T14:59:55;5.57;;;5.17;;
2712;SDS011;1366;47.988;7.856;2022-08-23T15:02:22;5.40;;;5.07;;
2712;SDS011;1366;47.988;7.856;2022-08-23T15:04:48;4.83;;;4.43;;
2712;SDS011;1366;47.988;7.856;2022-08-23T15:07:15;5.17;;;4.70;;
2712;SDS011;1366;47.988;7.856;2022-08-23T15:09:41;5.33;;;4.93;;
2712;SDS011;1366;47.988;7.856;2022-08-23T15:12:08;4.83;;;4.57;;
2712;SDS011;1366;47.988;7.856;2022-08-23T15:14:34;5.00;;;4.60;;
2712;SDS011;1366;47.988;7.856;2022-08-23T15:17:00;5.03;;;4.53;;
2712;SDS011;1366;47.988;7.856;2022-08-23T15:19:28;4.70;;;4.40;;
2712;SDS011;1366;47.988;7.856;2022-08-23T15:21:54;5.00;;;4.67;;
2712;SDS011;1366;47.988;7.856;2022-08-23T15:24:20;4.37;;;4.17;;
2712;SDS011;1366;47.988;7.856;2022-08-23T15:26:46;5.00;;;4.70;;
2712;SDS011;1366;47.988;7.856;2022-08-23T15:29:12;4.83;;;4.43;;
2712;SDS011;1366;47.988;7.856;2022-08-23T15:31:39;4.55;;;4.25;;
2712;SDS011;1366;47.988;7.856;2022-08-23T15:34:05;4.90;;;4.60;;
2712;SDS011;1366;47.988;7.856;2022-08-23T15:36:33;5.27;;;4.80;;
2712;SDS011;1366;47.988;7.856;2022-08-23T15:39:00;4.23;;;4.03;;
2712;SDS011;1366;47.988;7.856;2022-08-23T15:41:26;5.30;;;4.93;;
2712;SDS011;1366;47.988;7.856;2022-08-23T15:43:52;4.53;;;4.15;;
2712;SDS011;1366;47.988;7.856;2022-08-23T15:46:20;4.50;;;4.23;;
2712;SDS011;1366;47.988;7.856;2022-08-23T15:49:32;4.63;;;4.33;;
2712;SDS011;1366;47.988;7.856;2022-08-23T15:51:32;4.70;;;4.40;;
2712;SDS011;1366;47.988;7.856;2022-08-23T15:53:58;7.00;;;5.23;;
2712;SDS011;1366;47.988;7.856;2022-08-23T15:56:29;4.93;;;4.60;;
2712;SDS011;1366;47.988;7.856;2022-08-23T15:58:56;5.07;;;4.67;;
2712;SDS011;1366;47.988;7.856;2022-08-23T16:01:22;5.00;;;4.60;;
2712;SDS011;1366;47.988;7.856;2022-08-23T16:03:49;4.80;;;4.50;;
2712;SDS011;1366;47.988;7.856;2022-08-23T16:06:16;4.63;;;4.30;;
2712;SDS011;1366;47.988;7.856;2022-08-23T16:08:44;5.63;;;5.10;;
2712;SDS011;1366;47.988;7.856;2022-08-23T16:11:11;6.50;;;4.67;;
2712;SDS011;1366;47.988;7.856;2022-08-23T16:13:38;4.50;;;4.20;;
2712;SDS011;1366;47.988;7.856;2022-08-23T16:18:45;6.10;;;5.10;;
2712;SDS011;1366;47.988;7.856;2022-08-23T16:21:11;4.60;;;4.30;;
2712;SDS011;1366;47.988;7.856;2022-08-23T16:23:38;4.80;;;4.60;;
2712;SDS011;1366;47.988;7.856;2022-08-23T16:26:06;5.17;;;4.77;;
2712;SDS011;1366;47.988;7.856;2022-08-23T16:28:32;4.83;;;4.43;;
2712;SDS011;1366;47.988;7.856;2022-08-23T16:30:58;4.80;;;4.50;;
2712;SDS011;1366;47.988;7.856;2022-08-23T16:33:24;5.00;;;4.60;;
2712;SDS011;1366;47.988;7.856;2022-08-23T16:35:51;4.67;;;4.37;;
2712;SDS011;1366;47.988;7.856;2022-08-23T16:38:17;4.50;;;4.20;;
2712;SDS011;1366;47.988;7.856;2022-08-23T16:40:43;5.07;;;4.70;;
2712;SDS011;1366;47.988;7.856;2022-08-23T16:43:09;4.83;;;4.27;;
2712;SDS011;1366;47.988;7.856;2022-08-23T16:45:35;4.43;;;4.20;;
2712;SDS011;1366;47.988;7.856;2022-08-23T16:48:01;4.77;;;4.47;;
2712;SDS011;1366;47.988;7.856;2022-08-23T16:50:27;4.63;;;4.20;;
2712;SDS011;1366;47.988;7.856;2022-08-23T16:52:56;4.70;;;4.40;;
2712;SDS011;1366;47.988;7.856;2022-08-23T16:55:22;4.87;;;4.57;;
2712;SDS011;1366;47.988;7.856;2022-08-23T16:57:48;4.67;;;4.27;;
2712;SDS011;1366;47.988;7.856;2022-08-23T17:00:15;4.33;;;4.03;;
2712;SDS011;1366;47.988;7.856;2022-08-23T17:02:42;5.00;;;4.70;;
2712;SDS011;1366;47.988;7.856;2022-08-23T17:05:09;4.60;;;4.23;;
2712;SDS011;1366;47.988;7.856;2022-08-23T17:07:36;4.80;;;4.60;;
2712;SDS011;1366;47.988;7.856;2022-08-23T17:10:03;4.53;;;4.27;;
2712;SDS011;1366;47.988;7.856;2022-08-23T17:12:30;4.80;;;4.50;;
2712;SDS011;1366;47.988;7.856;2022-08-23T17:14:56;4.20;;;4.00;;
2712;SDS011;1366;47.988;7.856;2022-08-23T17:17:23;5.27;;;4.80;;
2712;SDS011;1366;47.988;7.856;2022-08-23T17:19:49;5.73;;;5.00;;
2712;SDS011;1366;47.988;7.856;2022-08-23T17:22:15;4.80;;;4.40;;
2712;SDS011;1366;47.988;7.856;2022-08-23T17:24:41;4.43;;;4.07;;
2712;SDS011;1366;47.988;7.856;2022-08-23T17:27:08;5.50;;;4.60;;
2712;SDS011;1366;47.988;7.856;2022-08-23T17:29:34;5.10;;;4.50;;
2712;SDS011;1366;47.988;7.856;2022-08-23T17:32:00;6.00;;;5.50;;
2712;SDS011;1366;47.988;7.856;2022-08-23T17:34:26;5.03;;;4.73;;
2712;SDS011;1366;47.988;7.856;2022-08-23T17:36:53;4.80;;;4.50;;
2712;SDS011;1366;47.988;7.856;2022-08-23T17:39:20;5.07;;;4.67;;
2712;SDS011;1366;47.988;7.856;2022-08-23T17:41:47;4.90;;;4.60;;
2712;SDS011;1366;47.988;7.856;2022-08-23T17:44:13;5.10;;;4.80;;
2712;SDS011;1366;47.988;7.856;2022-08-23T17:46:40;5.83;;;5.33;;
2712;SDS011;1366;47.988;7.856;2022-08-23T17:49:07;5.10;;;4.80;;
2712;SDS011;1366;47.988;7.856;2022-08-23T17:51:34;4.87;;;4.57;;
2712;SDS011;1366;47.988;7.856;2022-08-23T17:54:01;5.57;;;5.17;;
2712;SDS011;1366;47.988;7.856;2022-08-23T17:56:27;5.20;;;4.73;;
2712;SDS011;1366;47.988;7.856;2022-08-23T17:58:54;5.10;;;4.60;;
2712;SDS011;1366;47.988;7.856;2022-08-23T18:01:20;5.30;;;4.90;;
2712;SDS011;1366;47.988;7.856;2022-08-23T18:03:46;5.63;;;5.23;;
2712;SDS011;1366;47.988;7.856;2022-08-23T18:06:12;5.47;;;4.97;;
2712;SDS011;1366;47.988;7.856;2022-08-23T18:08:39;5.80;;;5.33;;
2712;SDS011;1366;47.988;7.856;2022-08-23T18:11:05;5.83;;;5.30;;
2712;SDS011;1366;47.988;7.856;2022-08-23T18:13:31;5.50;;;5.10;;
2712;SDS011;1366;47.988;7.856;2022-08-23T18:15:58;6.33;;;5.83;;
2712;SDS011;1366;47.988;7.856;2022-08-23T18:18:24;6.20;;;5.70;;
2712;SDS011;1366;47.988;7.856;2022-08-23T18:20:53;9.20;;;5.97;;
2712;SDS011;1366;47.988;7.856;2022-08-23T18:23:19;5.80;;;5.40;;
2712;SDS011;1366;47.988;7.856;2022-08-23T18:25:45;5.33;;;4.93;;
2712;SDS011;1366;47.988;7.856;2022-08-23T18:28:12;5.40;;;4.90;;
2712;SDS011;1366;47.988;7.856;2022-08-23T18:33:11;5.67;;;5.27;;
2712;SDS011;1366;47.988;7.856;2022-08-23T18:35:37;6.47;;;5.97;;
2712;SDS011;1366;47.988;7.856;2022-08-23T18:38:03;5.43;;;5.03;;
2712;SDS011;1366;47.988;7.856;2022-08-23T18:40:30;5.50;;;5.10;;
2712;SDS011;1366;47.988;7.856;2022-08-23T18:43:09;5.57;;;5.27;;
2712;SDS011;1366;47.988;7.856;2022-08-23T18:45:35;5.87;;;5.47;;
2712;SDS011;1366;47.988;7.856;2022-08-23T18:48:02;6.10;;;5.43;;
2712;SDS011;1366;47.988;7.856;2022-08-23T18:50:29;5.30;;;5.00;;
2712;SDS011;1366;47.988;7.856;2022-08-23T18:52:55;5.60;;;5.20;;
2712;SDS011;1366;47.988;7.856;2022-08-23T18:55:21;5.77;;;5.33;;
2712;SDS011;1366;47.988;7.856;2022-08-23T18:57:47;5.70;;;5.40;;
2712;SDS011;1366;47.988;7.856;2022-08-23T19:00:13;5.97;;;5.50;;
2712;SDS011;1366;47.988;7.856;2022-08-23T19:02:39;5.65;;;5.10;;
2712;SDS011;1366;47.988;7.856;2022-08-23T19:05:06;6.43;;;5.83;;
2712;SDS011;1366;47.988;7.856;2022-08-23T19:07:32;5.33;;;4.73;;
2712;SDS011;1366;47.988;7.856;2022-08-23T19:09:58;6.27;;;5.87;;
2712;SDS011;1366;47.988;7.856;2022-08-23T19:12:25;5.80;;;5.40;;
2712;SDS011;1366;47.988;7.856;2022-08-23T19:14:52;6.10;;;5.60;;
2712;SDS011;1366;47.988;7.856;2022-08-23T19:17:19;5.63;;;5.23;;
2712;SDS011;1366;47.988;7.856;2022-08-23T19:19:45;5.53;;;5.13;;
2712;SDS011;1366;47.988;7.856;2022-08-23T19:22:11;5.93;;;5.37;;
2712;SDS011;1366;47.988;7.856;2022-08-23T19:24:38;6.40;;;5.80;;
2712;SDS011;1366;47.988;7.856;2022-08-23T19:27:05;6.60;;;5.77;;
2712;SDS011;1366;47.988;7.856;2022-08-23T19:29:31;5.47;;;5.17;;
2712;SDS011;1366;47.988;7.856;2022-08-23T19:31:58;5.80;;;5.30;;
2712;SDS011;1366;47.988;7.856;2022-08-23T19:34:24;6.17;;;5.57;;
2712;SDS011;1366;47.988;7.856;2022-08-23T19:36:51;6.07;;;5.47;;
2712;SDS011;1366;47.988;7.856;2022-08-23T19:39:18;6.37;;;5.90;;
2712;SDS011;1366;47.988;7.856;2022-08-23T19:41:44;6.80;;;6.20;;
2712;SDS011;1366;47.988;7.856;2022-08-23T19:44:12;5.80;;;5.30;;
2712;SDS011;1366;47.988;7.856;2022-08-23T19:46:39;5.70;;;5.30;;
2712;SDS011;1366;47.988;7.856;2022-08-23T19:49:06;5.83;;;5.43;;
2712;SDS011;1366;47.988;7.856;2022-08-23T19:51:33;5.53;;;5.13;;
2712;SDS011;1366;47.988;7.856;2022-08-23T19:53:59;5.93;;;5.40;;
2712;SDS011;1366;47.988;7.856;2022-08-23T19:56:29;6.00;;;5.50;;
2712;SDS011;1366;47.988;7.856;2022-08-23T19:58:55;5.30;;;4.90;;
2712;SDS011;1366;47.988;7.856;2022-08-23T20:01:22;6.13;;;5.67;;
2712;SDS011;1366;47.988;7.856;2022-08-23T20:03:48;6.13;;;5.70;;
2712;SDS011;1366;47.988;7.856;2022-08-23T20:06:14;5.27;;;4.97;;
2712;SDS011;1366;47.988;7.856;2022-08-23T20:08:40;6.13;;;5.63;;
2712;SDS011;1366;47.988;7.856;2022-08-23T20:11:06;5.70;;;5.30;;
2712;SDS011;1366;47.988;7.856;2022-08-23T20:13:32;4.95;;;4.65;;
2712;SDS011;1366;47.988;7.856;2022-08-23T20:15:59;5.23;;;4.93;;
2712;SDS011;1366;47.988;7.856;2022-08-23T20:18:25;5.50;;;5.00;;
2712;SDS011;1366;47.988;7.856;2022-08-23T20:20:51;6.20;;;5.80;;
2712;SDS011;1366;47.988;7.856;2022-08-23T20:23:18;5.80;;;5.40;;
2712;SDS011;1366;47.988;7.856;2022-08-23T20:26:03;5.83;;;5.17;;
2712;SDS011;1366;47.988;7.856;2022-08-23T20:28:29;6.00;;;5.40;;
2712;SDS011;1366;47.988;7.856;2022-08-23T20:30:56;5.97;;;5.57;;
2712;SDS011;1366;47.988;7.856;2022-08-23T20:33:23;5.97;;;5.47;;
2712;SDS011;1366;47.988;7.856;2022-08-23T20:35:49;5.50;;;5.20;;
2712;SDS011;1366;47.988;7.856;2022-08-23T20:38:15;6.67;;;5.97;;
2712;SDS011;1366;47.988;7.856;2022-08-23T20:40:41;5.30;;;4.90;;
2712;SDS011;1366;47.988;7.856;2022-08-23T20:43:07;6.53;;;5.97;;
2712;SDS011;1366;47.988;7.856;2022-08-23T20:45:34;6.20;;;5.60;;
2712;SDS011;1366;47.988;7.856;2022-08-23T20:48:00;5.60;;;5.20;;
2712;SDS011;1366;47.988;7.856;2022-08-23T20:50:26;5.90;;;5.40;;
2712;SDS011;1366;47.988;7.856;2022-08-23T20:52:52;5.47;;;5.07;;